Salt Lake City, Utah
Traffic Map
Current Weather Conditions
Salt Lake City, Utah
Clear
Clear

Feels Like: 7°
Wind Chill: Ceiling: Unl
Heat Index: Visibility: 10mi
Dew Point: -2° Wind: 9mph
Humidity: 46% Direction: 340° (NNW)
Pressure: 30.25in Gusts: 0mph
Raw Report DataKSLC 290553Z 34008KT 10SM CLR 09/M02 A3025 RMK AO2 SLP212 T00941017 10211 20094 53025 $
Traffic Incident Summary
Active as of:
Severity:
Category:
InformationThere was an issue retrieving the traffic information for this location. Please try a different location or try again shortly.
Advertisements
Track Severe Weather on mobile